Time;durP1;ratioP1;P1;durP2;ratioP2;P2;SDS_P1;SDS_P2;PMS_P1;PMS_P2;Temp;Humidity;BMP_temperature;BMP_pressure;BME280_temperature;BME280_humidity;BME280_pressure;Samples;Min_cycle;Max_cycle;Signal;HPM_P1;HPM_P2
2021/04/26 00:01:24;;;;;;;18.17;7.57;;;;;;;8.83;66.81;102172.56;5033156;28;20057;-46
2021/04/26 00:03:51;;;;;;;13.95;6.28;;;;;;;8.84;67.05;102174.19;5015023;28;20049;-46
2021/04/26 00:06:18;;;;;;;10.85;6.32;;;;;;;8.83;66.78;102180.84;5032884;28;20050;-46
2021/04/26 00:08:44;;;;;;;18.15;7.90;;;;;;;8.81;66.71;102165.69;5032462;28;20046;-50
2021/04/26 00:11:11;;;;;;;11.23;5.97;;;;;;;8.81;66.92;102163.75;5030170;28;20566;-50
2021/04/26 00:13:37;;;;;;;11.65;5.60;;;;;;;8.70;67.08;102170.53;5032281;28;20072;-48
2021/04/26 00:16:03;;;;;;;10.60;5.53;;;;;;;8.60;67.27;102165.19;5032271;28;20046;-50
2021/04/26 00:18:30;;;;;;;14.25;5.85;;;;;;;8.53;67.32;102159.19;5031979;28;20883;-46
2021/04/26 00:20:56;;;;;;;15.02;6.22;;;;;;;8.51;67.48;102153.16;5032180;28;20073;-48
2021/04/26 00:23:22;;;;;;;15.38;6.07;;;;;;;8.44;67.30;102156.28;5032214;28;20056;-47
2021/04/26 00:25:49;;;;;;;12.80;6.30;;;;;;;8.40;67.50;102148.88;5032567;28;20050;-51
2021/04/26 00:28:15;;;;;;;13.05;6.57;;;;;;;8.38;67.45;102151.13;5032605;28;20404;-47
2021/04/26 00:30:41;;;;;;;16.63;6.88;;;;;;;8.37;67.39;102146.69;5033971;28;20137;-47
2021/04/26 00:33:08;;;;;;;17.85;6.38;;;;;;;8.36;67.57;102150.59;5037728;28;20037;-46
2021/04/26 00:35:34;;;;;;;15.77;7.57;;;;;;;8.35;67.67;102137.91;5031692;28;20041;-45
2021/04/26 00:38:01;;;;;;;17.23;6.72;;;;;;;8.34;68.04;102136.28;5032089;28;20087;-46
2021/04/26 00:40:27;;;;;;;13.75;6.55;;;;;;;8.33;67.89;102137.38;5032271;28;20053;-45
2021/04/26 00:42:54;;;;;;;14.98;6.47;;;;;;;8.31;67.76;102129.38;5031139;28;20387;-46
2021/04/26 00:45:23;;;;;;;13.68;6.03;;;;;;;8.28;68.01;102140.22;5032162;28;20046;-46
2021/04/26 00:47:50;;;;;;;18.30;7.10;;;;;;;8.26;67.73;102142.44;5031831;28;20045;-46
2021/04/26 00:50:21;;;;;;;13.55;8.15;;;;;;;8.22;68.12;102141.34;5031492;28;20100;-47
2021/04/26 00:52:49;;;;;;;16.42;7.07;;;;;;;8.24;68.05;102141.88;5030908;28;20529;-47
2021/04/26 00:55:18;;;;;;;15.75;7.65;;;;;;;8.24;67.98;102134.44;5032093;28;20045;-46
2021/04/26 00:57:47;;;;;;;17.70;7.93;;;;;;;8.21;68.20;102128.66;5014144;28;20045;-46
2021/04/26 01:00:15;;;;;;;18.27;7.57;;;;;;;8.20;68.24;102132.56;5031908;28;20049;-50
2021/04/26 01:02:42;;;;;;;12.82;6.80;;;;;;;8.19;68.35;102130.91;5013037;28;20375;-46
2021/04/26 01:05:15;;;;;;;15.65;7.32;;;;;;;8.16;68.49;102125.97;5031680;28;20486;-49
2021/04/26 01:07:45;;;;;;;15.18;6.22;;;;;;;8.15;68.46;102124.34;5031572;28;20112;-46
2021/04/26 01:10:14;;;;;;;17.05;6.70;;;;;;;8.14;68.51;102128.22;5031228;28;20038;-47
2021/04/26 01:13:04;;;;;;;14.40;7.60;;;;;;;8.08;68.53;102113.66;5031288;28;20049;-46
2021/04/26 01:15:35;;;;;;;16.98;8.13;;;;;;;8.05;68.78;102125.28;5031350;28;20135;-48
2021/04/26 01:18:20;;;;;;;14.85;6.80;;;;;;;8.02;68.96;102130.59;5031327;28;20069;-47
2021/04/26 01:21:02;;;;;;;16.13;6.55;;;;;;;7.99;68.77;102120.97;5031458;28;20099;-49
2021/04/26 01:24:04;;;;;;;14.40;6.68;;;;;;;7.95;69.20;102122.66;5030348;28;20044;-49
2021/04/26 01:26:52;;;;;;;13.75;7.38;;;;;;;7.93;68.90;102125.72;5031539;28;20053;-48
2021/04/26 01:29:55;;;;;;;20.40;8.07;;;;;;;7.90;69.12;102131.00;5031412;28;20073;-48
2021/04/26 01:32:39;;;;;;;17.85;7.97;;;;;;;7.91;68.80;102125.19;5036144;28;20042;-44
2021/04/26 01:35:09;;;;;;;14.88;6.68;;;;;;;7.90;68.82;102131.81;5031513;28;20432;-48
2021/04/26 01:37:36;;;;;;;14.07;7.43;;;;;;;7.85;69.12;102129.13;5031430;28;20457;-45
2021/04/26 01:40:09;;;;;;;18.38;7.82;;;;;;;7.79;69.38;102124.78;5030905;28;20081;-47
2021/04/26 01:42:38;;;;;;;17.55;8.55;;;;;;;7.80;69.07;102123.69;5030709;28;20133;-47
2021/04/26 01:45:10;;;;;;;14.75;6.97;;;;;;;7.79;69.02;102121.19;5031243;28;20069;-48
2021/04/26 01:47:39;;;;;;;12.48;5.95;;;;;;;7.81;69.17;102133.56;5031330;28;20053;-44
2021/04/26 01:50:09;;;;;;;10.93;6.22;;;;;;;7.79;69.02;102127.53;5031430;28;20084;-45
2021/04/26 01:52:36;;;;;;;13.18;6.22;;;;;;;7.75;69.11;102112.72;5030076;28;20061;-45
2021/04/26 01:55:08;;;;;;;15.75;6.28;;;;;;;7.76;68.99;102128.13;5031365;28;20073;-45
2021/04/26 01:57:40;;;;;;;13.15;5.95;;;;;;;7.74;69.10;102130.34;5030447;28;20045;-48
2021/04/26 02:00:28;;;;;;;16.87;6.27;;;;;;;7.76;68.87;102128.13;5029092;28;20124;-47
2021/04/26 02:02:56;;;;;;;15.20;7.13;;;;;;;7.75;68.56;102120.97;5028649;28;20333;-46
2021/04/26 02:05:25;;;;;;;13.25;6.40;;;;;;;7.68;69.09;102114.97;5013627;28;20521;-47
2021/04/26 02:07:53;;;;;;;14.18;6.78;;;;;;;7.61;69.06;102117.25;5031546;28;20049;-45
2021/04/26 02:10:22;;;;;;;17.65;7.55;;;;;;;7.58;69.42;102119.78;5031003;28;20069;-46
2021/04/26 02:12:50;;;;;;;17.23;7.10;;;;;;;7.51;69.70;102120.13;5012963;28;20730;-49
2021/04/26 02:15:19;;;;;;;12.73;5.72;;;;;;;7.47;69.24;102108.03;5030729;28;20073;-47
2021/04/26 02:17:47;;;;;;;13.30;6.60;;;;;;;7.47;69.32;102115.47;5030746;28;20053;-45
2021/04/26 02:20:17;;;;;;;16.83;7.38;;;;;;;7.45;69.25;102109.44;5030765;28;20077;-47
2021/04/26 02:22:48;;;;;;;20.02;8.07;;;;;;;7.46;69.50;102111.91;5030281;28;20041;-44
2021/04/26 02:25:15;;;;;;;21.48;7.43;;;;;;;7.44;69.66;102116.06;5030855;28;20069;-45
2021/04/26 02:27:44;;;;;;;13.98;6.88;;;;;;;7.44;69.75;102114.13;5030975;28;20041;-45
2021/04/26 02:30:11;;;;;;;15.98;6.70;;;;;;;7.49;69.59;102114.09;5030482;28;20437;-46
2021/04/26 02:33:11;;;;;;;16.27;6.63;;;;;;;7.49;70.07;102116.03;5036103;28;20069;-46
2021/04/26 02:35:54;;;;;;;19.30;6.82;;;;;;;7.52;70.05;102109.94;5033245;28;20159;-46
2021/04/26 02:38:49;;;;;;;14.65;6.55;;;;;;;7.49;70.18;102105.84;5033966;28;20451;-49
2021/04/26 02:41:24;;;;;;;13.07;7.38;;;;;;;7.49;70.13;102110.50;5031557;28;20081;-45
2021/04/26 02:43:55;;;;;;;14.13;6.97;;;;;;;7.47;70.35;102104.44;5033712;28;20041;-48
2021/04/26 02:46:24;;;;;;;12.07;6.22;;;;;;;7.43;70.34;102104.22;5034175;28;20065;-45
2021/04/26 02:48:57;;;;;;;13.52;5.97;;;;;;;7.41;70.54;102103.72;5033279;28;20242;-45
2021/04/26 02:51:27;;;;;;;17.67;6.53;;;;;;;7.43;70.48;102095.97;5033918;28;20384;-49
2021/04/26 02:53:54;;;;;;;12.82;6.25;;;;;;;7.40;70.19;102096.53;5033725;28;20100;-45
2021/04/26 02:56:22;;;;;;;10.77;5.40;;;;;;;7.40;70.45;102093.78;5034040;28;20402;-47
2021/04/26 02:58:52;;;;;;;14.02;5.90;;;;;;;7.41;69.99;102098.19;5033691;28;20503;-46
2021/04/26 03:01:19;;;;;;;11.95;6.32;;;;;;;7.40;70.20;102091.03;5033770;28;20069;-47
2021/04/26 03:03:50;;;;;;;13.40;6.38;;;;;;;7.33;70.18;102090.56;5033320;28;20498;-46
2021/04/26 03:06:18;;;;;;;9.75;5.70;;;;;;;7.22;70.33;102070.56;5033641;28;20048;-48
2021/04/26 03:08:46;;;;;;;11.55;4.85;;;;;;;7.17;70.44;102075.28;5033858;28;20038;-46
2021/04/26 03:11:16;;;;;;;11.82;6.55;;;;;;;7.14;70.25;102076.69;5032623;28;20451;-47
2021/04/26 03:13:43;;;;;;;11.65;7.38;;;;;;;7.20;70.40;102077.47;5033657;28;20080;-47
2021/04/26 03:16:11;;;;;;;12.43;5.95;;;;;;;7.17;70.27;102081.63;5033619;28;20475;-47
2021/04/26 03:18:42;;;;;;;;;;;;;;;7.11;70.21;102076.44;5033964;28;20062;-45
2021/04/26 03:21:10;;;;;;;12.38;5.78;;;;;;;7.08;69.86;102072.34;5032886;28;20007;-49
2021/04/26 03:23:38;;;;;;;15.27;6.03;;;;;;;7.05;70.12;102077.59;5033256;28;20124;-46
2021/04/26 03:26:06;;;;;;;11.27;5.35;;;;;;;7.03;70.08;102064.13;5015784;28;20046;-47
2021/04/26 03:28:40;;;;;;;12.30;6.63;;;;;;;7.03;70.21;102057.78;5032181;28;20127;-48
2021/04/26 03:31:07;;;;;;;14.48;7.10;;;;;;;7.03;70.19;102066.06;5038735;28;20045;-46
2021/04/26 03:33:35;;;;;;;14.35;6.03;;;;;;;7.00;69.95;102066.63;5037089;28;20052;-48
2021/04/26 03:36:02;;;;;;;17.48;6.82;;;;;;;6.96;70.22;102057.31;5033429;28;20037;-46
2021/04/26 03:38:29;;;;;;;13.15;6.38;;;;;;;6.91;70.47;102057.38;5032637;28;20049;-46
2021/04/26 03:40:57;;;;;;;12.25;5.55;;;;;;;6.87;70.50;102065.38;5032922;28;20037;-48
2021/04/26 03:43:25;;;;;;;11.75;5.60;;;;;;;6.86;70.58;102062.91;5014945;28;20041;-47
2021/04/26 03:45:55;;;;;;;12.32;5.93;;;;;;;6.86;70.56;102062.91;5032753;28;20072;-45
2021/04/26 03:48:22;;;;;;;13.48;5.90;;;;;;;6.84;70.52;102059.59;5032521;28;20056;-47
2021/04/26 03:50:48;;;;;;;10.43;5.95;;;;;;;6.83;70.51;102046.97;5032899;28;20069;-48
2021/04/26 03:53:14;;;;;;;14.35;6.05;;;;;;;6.79;70.44;102046.72;5032901;28;20383;-46
2021/04/26 03:55:41;;;;;;;14.48;5.70;;;;;;;6.79;70.65;102045.88;5032269;28;20436;-45
2021/04/26 03:58:08;;;;;;;15.55;6.65;;;;;;;6.77;70.84;102048.13;5032318;28;20502;-45
2021/04/26 04:00:34;;;;;;;10.90;4.97;;;;;;;6.74;70.69;102050.34;5032676;28;20045;-47
2021/04/26 04:03:08;;;;;;;12.23;5.38;;;;;;;6.77;70.48;102037.09;5025852;28;20554;-45
2021/04/26 04:05:37;;;;;;;16.45;7.05;;;;;;;6.77;70.12;102037.09;5032635;28;20132;-47
2021/04/26 04:08:05;;;;;;;13.95;6.40;;;;;;;6.75;70.57;102034.66;5032008;28;20236;-45
2021/04/26 04:10:32;;;;;;;15.63;7.22;;;;;;;6.80;69.92;102034.59;5032927;28;20057;-45
2021/04/26 04:12:58;;;;;;;10.55;6.03;;;;;;;6.79;70.27;102030.19;5032479;28;20441;-46
2021/04/26 04:15:25;;;;;;;16.10;6.72;;;;;;;6.71;70.15;102028.91;5031962;28;20144;-47
2021/04/26 04:17:52;;;;;;;12.52;5.82;;;;;;;6.61;70.40;102029.00;5032289;28;20080;-46
2021/04/26 04:20:18;;;;;;;18.55;6.47;;;;;;;6.56;70.59;102015.28;5031794;28;20459;-48
2021/04/26 04:22:45;;;;;;;12.25;5.82;;;;;;;6.56;70.84;102018.03;5032346;28;20045;-48
2021/04/26 04:25:12;;;;;;;11.25;6.00;;;;;;;6.57;70.64;102016.06;5032063;28;20133;-50
2021/04/26 04:27:38;;;;;;;14.05;6.07;;;;;;;6.52;70.49;102019.69;5032297;28;20072;-45
2021/04/26 04:30:07;;;;;;;14.27;8.07;;;;;;;6.51;70.42;102009.78;5032250;28;20099;-46
2021/04/26 04:32:35;;;;;;;12.52;6.18;;;;;;;6.49;70.44;102006.50;5040887;28;20049;-48
2021/04/26 04:35:01;;;;;;;12.48;6.70;;;;;;;6.45;70.65;102004.63;5032044;28;20428;-48
2021/04/26 04:37:27;;;;;;;16.60;6.57;;;;;;;6.44;70.76;101995.53;5031609;28;20430;-45
2021/04/26 04:39:54;;;;;;;16.75;6.50;;;;;;;6.44;70.98;102001.06;5031843;28;20073;-47
2021/04/26 04:42:20;;;;;;;13.90;5.40;;;;;;;6.44;71.00;102001.06;5031789;28;20136;-47
2021/04/26 04:44:46;;;;;;;14.18;6.22;;;;;;;6.40;71.12;102005.50;5032025;28;20068;-48
2021/04/26 04:47:13;;;;;;;15.10;7.30;;;;;;;6.44;70.82;102001.06;5031989;28;20077;-47
2021/04/26 04:49:39;;;;;;;12.90;7.38;;;;;;;6.45;71.17;101999.94;5031205;28;20458;-45
2021/04/26 04:52:06;;;;;;;13.05;6.97;;;;;;;6.45;71.16;102004.63;5031871;28;20049;-44
2021/04/26 04:54:32;;;;;;;17.75;7.00;;;;;;;6.44;71.26;102000.22;5014245;28;20107;-45
2021/04/26 04:56:59;;;;;;;14.50;6.63;;;;;;;6.46;71.56;102009.03;5031069;28;20076;-50
2021/04/26 04:59:25;;;;;;;14.32;6.57;;;;;;;6.48;71.48;101998.56;5031260;28;20069;-47
2021/04/26 05:01:51;;;;;;;12.80;5.85;;;;;;;6.50;71.80;101993.56;5031567;28;20041;-45
2021/04/26 05:04:17;;;;;;;16.40;6.88;;;;;;;6.52;71.68;102000.44;5031379;28;20037;-48
2021/04/26 05:06:44;;;;;;;13.77;5.50;;;;;;;6.53;71.87;102002.09;5031675;28;20406;-45
2021/04/26 05:09:10;;;;;;;14.88;7.00;;;;;;;6.52;72.11;101997.69;5016204;28;20566;-45
2021/04/26 05:11:37;;;;;;;12.18;6.07;;;;;;;6.48;71.73;102002.13;5031177;28;20648;-47
2021/04/26 05:14:04;;;;;;;16.92;6.90;;;;;;;6.45;72.08;101997.19;5031565;28;20048;-48
2021/04/26 05:16:32;;;;;;;14.05;7.15;;;;;;;6.43;72.05;102006.84;5031445;28;20057;-47
2021/04/26 05:19:00;;;;;;;15.30;6.93;;;;;;;6.47;71.98;102008.72;5030861;28;20048;-46
2021/04/26 05:21:27;;;;;;;14.30;6.00;;;;;;;6.47;71.87;102003.22;5030934;28;20045;-48
2021/04/26 05:23:54;;;;;;;17.95;7.97;;;;;;;6.48;71.58;101995.81;5031066;28;20041;-46
2021/04/26 05:26:22;;;;;;;12.15;5.63;;;;;;;6.49;71.42;102009.25;5031403;28;20045;-46
2021/04/26 05:28:48;;;;;;;14.18;6.88;;;;;;;6.51;71.60;102001.53;5030965;28;20540;-48
2021/04/26 05:31:14;;;;;;;13.68;6.13;;;;;;;6.48;71.71;102002.13;5037107;28;20103;-48
2021/04/26 05:33:41;;;;;;;14.10;6.57;;;;;;;6.48;71.89;102002.13;5033476;28;20502;-46
2021/04/26 05:36:07;;;;;;;14.68;6.55;;;;;;;6.53;71.72;101995.75;5013607;28;20136;-48
2021/04/26 05:38:33;;;;;;;10.65;5.88;;;;;;;6.56;71.58;101998.75;5030393;28;20457;-48
2021/04/26 05:40:59;;;;;;;16.50;7.13;;;;;;;6.54;72.02;102002.91;5031398;28;20494;-48
2021/04/26 05:43:26;;;;;;;10.95;6.90;;;;;;;6.55;72.20;101993.53;5030993;28;20045;-46
2021/04/26 05:45:53;;;;;;;18.05;6.45;;;;;;;6.58;71.71;102002.03;5030647;28;20053;-47
2021/04/26 05:48:19;;;;;;;18.95;8.38;;;;;;;6.67;71.74;101994.78;5013726;28;20124;-48
2021/04/26 05:50:46;;;;;;;12.80;6.15;;;;;;;6.73;71.71;101996.41;5030993;28;20091;-46
2021/04/26 05:53:12;;;;;;;11.27;5.80;;;;;;;6.72;72.01;101986.50;5031026;28;20057;-47
2021/04/26 05:55:38;;;;;;;15.73;6.43;;;;;;;6.75;72.08;101990.63;5013481;28;20082;-45
2021/04/26 05:58:05;;;;;;;14.50;6.38;;;;;;;6.83;71.87;101983.66;5030824;28;20095;-46
2021/04/26 06:00:31;;;;;;;18.00;7.43;;;;;;;6.86;71.82;101985.84;5029947;28;20115;-45
2021/04/26 06:02:59;;;;;;;14.85;7.55;;;;;;;6.96;71.71;101980.22;5031180;28;20045;-45
2021/04/26 06:05:26;;;;;;;17.48;7.97;;;;;;;7.03;71.52;101976.00;5031368;28;20052;-48
2021/04/26 06:07:52;;;;;;;17.33;6.78;;;;;;;7.04;71.86;101979.59;5030698;28;20603;-47
2021/04/26 06:10:18;;;;;;;16.92;8.02;;;;;;;7.02;72.36;101971.59;5032569;28;20473;-47
2021/04/26 06:12:45;;;;;;;17.15;8.35;;;;;;;7.05;72.14;101967.44;5034733;28;20050;-47
2021/04/26 06:15:11;;;;;;;24.13;8.65;;;;;;;7.13;72.54;101975.06;5034638;28;20049;-45
2021/04/26 06:17:37;;;;;;;14.50;7.40;;;;;;;7.15;72.60;101978.34;5034337;28;20061;-45
2021/04/26 06:20:05;;;;;;;21.80;9.10;;;;;;;7.19;72.89;101963.72;5034777;28;20438;-49
2021/04/26 06:22:32;;;;;;;22.25;8.93;;;;;;;7.24;72.73;101966.41;5034598;28;20080;-47
2021/04/26 06:24:58;;;;;;;21.13;7.30;;;;;;;7.30;72.82;101965.25;5034443;28;20128;-49
2021/04/26 06:27:24;;;;;;;13.15;6.20;;;;;;;7.34;72.76;101959.97;5034376;28;20049;-46
2021/04/26 06:29:50;;;;;;;16.90;8.55;;;;;;;7.41;73.03;101960.44;5021444;28;20120;-49
2021/04/26 06:32:17;;;;;;;17.45;7.18;;;;;;;7.47;73.18;101950.97;5032782;28;20535;-45
2021/04/26 06:34:43;;;;;;;19.50;9.70;;;;;;;7.53;72.95;101963.59;5037749;28;20041;-47
2021/04/26 06:37:12;;;;;;;18.83;7.18;;;;;;;7.59;73.19;101953.31;5047304;28;20554;-50
2021/04/26 06:39:38;;;;;;;17.27;9.13;;;;;;;7.69;73.25;101956.75;5032905;28;20092;-46
2021/04/26 06:42:05;;;;;;;18.95;8.20;;;;;;;7.79;73.23;101956.59;5030496;28;20038;-48
2021/04/26 06:44:31;;;;;;;20.45;9.05;;;;;;;7.87;73.25;101953.19;5030488;28;20505;-45
2021/04/26 06:46:57;;;;;;;18.60;8.95;;;;;;;7.96;73.17;101950.59;5030708;28;20462;-48
2021/04/26 06:49:25;;;;;;;22.27;9.30;;;;;;;8.02;73.23;101943.06;5033085;28;20107;-47
2021/04/26 06:51:52;;;;;;;14.20;7.78;;;;;;;8.07;73.47;101946.56;5014979;28;20501;-48
2021/04/26 06:54:21;;;;;;;20.35;9.95;;;;;;;8.14;73.40;101951.69;5031948;28;20076;-50
2021/04/26 06:56:47;;;;;;;21.58;9.00;;;;;;;8.19;73.58;101941.38;5032177;28;20045;-47
2021/04/26 06:59:14;;;;;;;23.15;9.82;;;;;;;8.25;73.84;101944.88;5031122;28;20072;-49
2021/04/26 07:01:40;;;;;;;21.15;9.15;;;;;;;8.32;73.73;101951.69;5013079;28;20160;-48
2021/04/26 07:04:08;;;;;;;19.80;10.00;;;;;;;8.39;74.23;101948.56;5029938;28;20069;-47
2021/04/26 07:06:35;;;;;;;22.95;8.43;;;;;;;8.45;74.41;101948.16;5012625;28;20128;-47
2021/04/26 07:09:03;;;;;;;22.17;10.07;;;;;;;8.51;74.34;101943.38;5032076;28;20140;-46
2021/04/26 07:11:29;;;;;;;25.27;9.65;;;;;;;8.58;74.35;101941.03;5031766;28;20045;-46
2021/04/26 07:13:56;;;;;;;21.83;8.90;;;;;;;8.62;74.62;101936.56;5031499;28;20041;-47
2021/04/26 07:16:23;;;;;;;17.80;7.53;;;;;;;8.71;74.63;101939.47;5031876;28;20046;-49
2021/04/26 07:18:49;;;;;;;20.55;8.70;;;;;;;8.77;74.55;101936.28;5029792;28;20042;-47
2021/04/26 07:21:16;;;;;;;22.80;8.80;;;;;;;8.84;74.78;101944.19;5026986;28;20045;-50
2021/04/26 07:23:42;;;;;;;18.73;8.32;;;;;;;8.89;74.65;101924.75;5031451;28;20056;-49
2021/04/26 07:26:09;;;;;;;16.13;7.85;;;;;;;8.95;74.69;101935.38;5031763;28;20413;-48
2021/04/26 07:28:37;;;;;;;17.70;6.97;;;;;;;9.00;74.66;101927.00;5031385;28;20053;-49
2021/04/26 07:31:03;;;;;;;19.08;7.85;;;;;;;9.06;74.60;101920.25;5036331;28;20147;-46
2021/04/26 07:33:30;;;;;;;20.30;9.25;;;;;;;9.14;74.77;101922.31;5050452;28;20390;-50
2021/04/26 07:35:56;;;;;;;19.60;8.13;;;;;;;9.22;74.61;101934.56;5051182;28;20045;-46
2021/04/26 07:38:22;;;;;;;22.15;7.90;;;;;;;9.30;74.71;101919.22;5030682;28;20140;-49
2021/04/26 07:40:49;;;;;;;18.80;6.72;;;;;;;9.38;74.64;101915.72;5028619;28;20103;-50
2021/04/26 07:43:15;;;;;;;19.48;7.43;;;;;;;9.43;74.29;101908.16;5013147;28;20051;-48
2021/04/26 07:45:41;;;;;;;17.75;7.13;;;;;;;9.52;74.36;101905.50;5031417;28;20061;-49
2021/04/26 07:48:09;;;;;;;16.98;7.00;;;;;;;9.61;74.44;101898.13;5030627;28;20045;-49
2021/04/26 07:50:39;;;;;;;15.38;6.20;;;;;;;9.74;74.51;101905.56;5031638;28;20474;-47
2021/04/26 07:53:06;;;;;;;18.98;8.27;;;;;;;9.84;74.71;101902.53;5030560;28;20073;-45
2021/04/26 07:55:32;;;;;;;22.25;9.80;;;;;;;9.94;74.95;101910.59;5030986;28;20132;-45
2021/04/26 07:57:59;;;;;;;18.80;7.90;;;;;;;10.09;75.34;101907.47;5030334;28;21488;-46
2021/04/26 08:00:25;;;;;;;14.85;6.40;;;;;;;10.20;75.74;101906.13;5031181;28;20077;-48
2021/04/26 08:02:52;;;;;;;15.43;7.85;;;;;;;10.34;75.92;101900.53;5013370;28;20461;-50
2021/04/26 08:05:18;;;;;;;17.80;7.22;;;;;;;10.48;76.50;101900.44;5030230;28;20136;-48
2021/04/26 08:07:44;;;;;;;13.32;6.18;;;;;;;10.64;76.81;101893.38;5012378;28;20458;-50
2021/04/26 08:10:11;;;;;;;14.85;6.07;;;;;;;10.82;77.34;101887.59;5030544;28;20450;-50
2021/04/26 08:12:38;;;;;;;15.30;5.45;;;;;;;11.03;77.38;101890.63;5030773;28;20124;-45
2021/04/26 08:15:08;;;;;;;13.88;6.05;;;;;;;11.28;77.48;101891.84;5030713;28;20137;-49
2021/04/26 08:17:34;;;;;;;16.77;7.03;;;;;;;11.60;77.92;101900.56;5013668;28;20080;-48
2021/04/26 08:20:01;;;;;;;14.05;7.97;;;;;;;12.00;78.08;101892.94;5029850;28;20042;-52
2021/04/26 08:22:28;;;;;;;11.55;7.20;;;;;;;12.51;77.36;101896.78;5030622;28;20065;-47
2021/04/26 08:24:54;;;;;;;17.35;7.32;;;;;;;13.11;75.32;101891.88;5019531;28;20041;-53
2021/04/26 08:27:20;;;;;;;14.68;7.45;;;;;;;13.79;73.54;101887.84;5029204;28;20052;-51
2021/04/26 08:29:47;;;;;;;15.52;8.30;;;;;;;14.44;70.40;101886.31;5030181;28;20073;-46
2021/04/26 08:32:13;;;;;;;15.15;7.50;;;;;;;15.14;67.82;101883.16;5044673;28;20216;-46
2021/04/26 08:34:39;;;;;;;12.73;6.97;;;;;;;15.84;65.04;101878.22;5034796;28;20467;-48
2021/04/26 08:37:06;;;;;;;12.77;6.80;;;;;;;16.53;62.84;101882.63;5028961;28;20471;-47
2021/04/26 08:39:32;;;;;;;14.13;6.57;;;;;;;17.17;59.92;101874.72;5030678;28;20053;-46
2021/04/26 08:41:59;;;;;;;11.68;5.82;;;;;;;17.80;56.67;101874.59;5029848;28;20059;-48
2021/04/26 08:44:26;;;;;;;12.57;6.43;;;;;;;18.31;54.35;101873.31;5029749;28;20049;-47
2021/04/26 08:46:53;;;;;;;9.38;5.00;;;;;;;18.62;52.84;101864.72;5029940;28;20073;-46
2021/04/26 08:49:20;;;;;;;10.32;5.70;;;;;;;18.99;51.44;101870.56;5029509;28;20060;-51
2021/04/26 08:51:47;;;;;;;8.50;4.97;;;;;;;19.44;49.90;101869.72;5030664;28;20124;-48
2021/04/26 08:54:17;;;;;;;9.75;5.63;;;;;;;19.73;48.42;101868.94;5029840;28;20077;-48
2021/04/26 08:56:45;;;;;;;8.48;4.80;;;;;;;19.99;47.41;101866.06;5029504;28;20057;-46
2021/04/26 08:59:12;;;;;;;10.05;4.65;;;;;;;20.19;46.29;101860.28;5030111;28;20132;-46
2021/04/26 09:01:39;;;;;;;7.72;4.88;;;;;;;20.36;45.68;101859.75;5029865;28;20049;-48
2021/04/26 09:04:12;;;;;;;9.07;4.72;;;;;;;20.53;42.99;101853.47;5022826;28;20049;-46
2021/04/26 09:06:59;;;;;;;8.98;4.68;;;;;;;20.70;42.05;101847.22;5026622;28;20497;-47
2021/04/26 09:09:32;;;;;;;6.40;3.85;;;;;;;20.99;41.58;101848.28;5028907;28;20037;-56
2021/04/26 09:11:59;;;;;;;8.32;4.93;;;;;;;21.35;40.79;101844.56;5025539;28;20069;-49
2021/04/26 09:14:45;;;;;;;8.25;4.85;;;;;;;21.66;38.76;101843.13;5010316;28;20123;-47
2021/04/26 09:17:40;;;;;;;10.80;4.60;;;;;;;21.69;38.77;101831.88;5029130;28;20041;-46
2021/04/26 09:20:16;;;;;;;12.40;4.30;;;;;;;21.71;37.31;101834.34;5028147;28;20045;-48
2021/04/26 09:22:57;;;;;;;8.70;4.97;;;;;;;21.78;37.60;101828.72;5029095;28;20083;-48
2021/04/26 09:25:36;;;;;;;6.63;4.47;;;;;;;21.86;38.07;101830.41;5029322;28;20080;-49
2021/04/26 09:28:11;;;;;;;8.02;4.97;;;;;;;22.05;37.20;101832.91;5029097;28;20410;-48
2021/04/26 09:30:48;;;;;;;7.30;4.82;;;;;;;22.13;36.34;101822.44;5014179;28;20141;-46
2021/04/26 09:33:27;;;;;;;6.70;3.80;;;;;;;22.12;36.44;101824.44;5030515;28;20056;-48
2021/04/26 09:36:03;;;;;;;7.13;4.05;;;;;;;22.10;35.84;101824.06;5028805;28;20145;-47
2021/04/26 09:38:30;;;;;;;19.65;4.55;;;;;;;22.25;35.53;101814.41;5028906;28;20103;-48
2021/04/26 09:41:11;;;;;;;5.47;4.05;;;;;;;22.30;35.12;101814.03;5027455;28;20046;-48
2021/04/26 09:43:40;;;;;;;6.47;4.30;;;;;;;22.48;34.68;101816.09;5029937;28;20494;-47
2021/04/26 09:46:08;;;;;;;5.78;4.38;;;;;;;22.52;34.49;101816.88;5016386;28;20552;-48
2021/04/26 09:48:34;;;;;;;8.73;4.78;;;;;;;22.57;34.25;101816.50;5033110;28;20049;-49
2021/04/26 09:51:02;;;;;;;8.38;4.22;;;;;;;22.58;33.97;101813.28;5032875;28;20134;-48
2021/04/26 09:53:43;;;;;;;8.98;5.10;;;;;;;22.60;33.86;101807.22;5033210;28;20053;-49
2021/04/26 09:56:38;;;;;;;7.15;3.90;;;;;;;22.65;33.58;101804.84;5032312;28;20054;-48
2021/04/26 09:59:06;;;;;;;5.68;3.95;;;;;;;22.57;34.05;101796.72;5032084;28;20064;-48
2021/04/26 10:01:35;;;;;;;8.27;4.10;;;;;;;22.51;33.66;101792.69;5040130;28;20076;-45
2021/04/26 10:04:03;;;;;;;5.30;3.60;;;;;;;22.42;33.90;101791.06;5032475;28;20067;-47
2021/04/26 10:06:32;;;;;;;7.40;3.77;;;;;;;22.37;33.21;101785.81;5014768;28;20059;-50
2021/04/26 10:09:01;;;;;;;5.32;3.78;;;;;;;22.13;32.95;101795.06;5015535;28;20056;-49
2021/04/26 10:11:30;;;;;;;9.85;4.13;;;;;;;22.12;33.36;101787.78;5033005;28;20092;-52
2021/04/26 10:14:04;;;;;;;9.63;4.68;;;;;;;22.15;32.82;101781.34;5033096;28;20050;-46
2021/04/26 10:16:51;;;;;;;7.15;3.63;;;;;;;22.19;32.84;101782.16;5032018;28;20053;-50
2021/04/26 10:19:26;;;;;;;7.18;4.15;;;;;;;22.02;32.79;101776.47;5031856;28;20564;-49
2021/04/26 10:21:55;;;;;;;7.88;4.22;;;;;;;21.78;32.74;101772.34;5033357;28;20068;-46
2021/04/26 10:24:25;;;;;;;7.18;3.90;;;;;;;21.87;32.57;101781.25;5032668;28;20402;-52
2021/04/26 10:26:58;;;;;;;7.15;4.13;;;;;;;22.01;31.84;101770.03;5031603;28;20491;-54
2021/04/26 10:29:34;;;;;;;9.25;4.07;;;;;;;21.87;32.05;101769.97;5032511;28;20049;-48
2021/04/26 10:32:15;;;;;;;7.65;3.60;;;;;;;21.68;32.42;101771.06;5045272;28;20128;-48
2021/04/26 10:34:43;;;;;;;9.45;4.68;;;;;;;21.66;33.01;101769.84;5037239;28;20375;-48
2021/04/26 10:37:16;;;;;;;7.20;3.55;;;;;;;21.59;32.61;101761.38;5015519;28;20490;-46
2021/04/26 10:39:56;;;;;;;7.40;3.60;;;;;;;21.45;32.96;101758.47;5032155;28;20073;-52
2021/04/26 10:42:37;;;;;;;6.93;3.72;;;;;;;21.13;33.02;101758.28;5032554;28;20054;-48
2021/04/26 10:45:23;;;;;;;6.88;3.75;;;;;;;20.72;33.48;101753.97;5032181;28;20072;-50
2021/04/26 10:47:58;;;;;;;8.35;3.78;;;;;;;20.26;33.51;101742.28;5032281;28;20075;-52
2021/04/26 10:50:28;;;;;;;6.45;3.97;;;;;;;20.01;33.97;101742.03;5015556;28;20045;-49
2021/04/26 10:52:56;;;;;;;7.32;3.83;;;;;;;19.77;34.04;101743.38;5031316;28;20073;-51
2021/04/26 10:55:23;;;;;;;7.15;3.25;;;;;;;19.58;34.38;101740.72;5030689;28;20506;-48
2021/04/26 10:57:59;;;;;;;5.38;3.35;;;;;;;19.44;34.01;101734.91;5014840;28;20053;-51
2021/04/26 11:00:32;;;;;;;5.43;3.78;;;;;;;19.33;34.24;101728.31;5030221;28;20059;-48
2021/04/26 11:03:05;;;;;;;6.72;3.60;;;;;;;19.22;34.63;101728.16;5012854;28;20073;-46
2021/04/26 11:05:34;;;;;;;10.07;3.78;;;;;;;19.01;35.00;101727.06;5012994;28;20048;-51
2021/04/26 11:08:10;;;;;;;6.20;3.95;;;;;;;18.93;35.28;101714.13;5014680;28;20041;-52
2021/04/26 11:10:53;;;;;;;7.55;3.08;;;;;;;18.80;35.60;101730.34;5031474;28;20759;-48
2021/04/26 11:13:34;;;;;;;7.35;3.33;;;;;;;18.66;35.18;101728.16;5031232;28;20053;-47
2021/04/26 11:16:07;;;;;;;9.23;3.90;;;;;;;18.62;35.94;101732.88;5014375;28;20053;-48
2021/04/26 11:18:42;;;;;;;8.05;4.85;;;;;;;18.48;36.46;101721.41;5030552;28;20049;-48
2021/04/26 11:21:10;;;;;;;8.18;4.03;;;;;;;18.35;37.12;101719.16;5031026;28;20041;-50
2021/04/26 11:23:45;;;;;;;15.13;5.03;;;;;;;18.22;37.36;101712.91;5031196;28;20056;-46
2021/04/26 11:26:15;;;;;;;9.00;4.93;;;;;;;17.96;37.67;101710.84;5031198;28;20100;-48
2021/04/26 11:29:01;;;;;;;12.02;5.32;;;;;;;17.74;39.01;101708.81;5030960;28;20132;-47
2021/04/26 11:31:42;;;;;;;7.25;4.25;;;;;;;17.47;38.91;101705.03;5039353;28;20673;-50
2021/04/26 11:34:09;;;;;;;6.38;4.00;;;;;;;17.45;39.05;101693.41;5041483;28;20076;-46
2021/04/26 11:36:38;;;;;;;7.95;3.88;;;;;;;17.42;39.40;101693.38;5031057;28;20115;-48